Hickory Valley, Louisiana
Current Conditions -  °F | °C
As of 4:35 PM on Sunday 25 Jan 2015 (Local Time) from KRSN Reporting Station
Clear Clear  
Wind Chill: 64°   Ceiling: Unl
Heat Index: 64°   Visibility: 10mi
Dew Point: 33°   Wind: 13mph
Humidity: 31%   Direction: 330°NNW
Pressure: 29.92"   Gusts: 23mph
Location:  32.0547°N, 92.4144°W
Report Text: KRSN 252235Z AUTO 33011G20KT 10SM CLR 18/00 A2992 RMK AO2 T01750003
Loading
Personal Weather Stations






























Interactive Weather Map New forecast layout! Learn more

10-Day Weather Forecast

Advertisements
Track Severe Weather on mobile